OOCL California — VRWC8 — position and weather

sailwx.info

Track history (hours):
 
Tides and Currents Weather Stations Pressure Air Temp Water Temp Dewpoint Dewpoint Depression Visibility Wind Speed Wind Dir Waves Ship Positions

OOCL California

Last reported at 2016-Apr-29 12:00 UTC. Time now 2016-May-02 12:37 UTC.
Position N 06°06' E 095°18'.

Length 276 m; beam 40 m; draft 14 m.

Type: Cargo ship. MMSI: 477704000.

Wind from 230 at 19 knots

Waves 0.5 meters (2 feet), 2 second period

Barometer 1002.2 mb
Air temperature 31.0 ° C
Visibility: greater than 5.4 NM
Dewpoint 27.1 ° C
Water temperature 32.0 ° C

Date/timePositionNaut miles runAvg speedWind from/ knotsBaromVisibWave heightAir tempDewpointWater temp
2016-Apr-29 12:00N 06°06' E 095°18'58119.1 230 / 191002.2 5.4 0.531.027.132.0
2016-Apr-28 05:31N 01°14' E 103°42'5 5.3
2016-Apr-28 04:33N 01°17' E 103°46'0 0.0
2016-Apr-28 03:33N 01°17' E 103°46'0 0.0
2016-Apr-28 02:33N 01°17' E 103°46'0 0.0
2016-Apr-28 01:27N 01°17' E 103°46'0 0.0
2016-Apr-28 00:33N 01°17' E 103°46'0 0.0
2016-Apr-27 23:33N 01°17' E 103°46'0 0.0
2016-Apr-27 22:33N 01°17' E 103°46'0 0.0
2016-Apr-27 21:33N 01°17' E 103°46'0 0.0
2016-Apr-27 20:24N 01°17' E 103°46'0 0.0
2016-Apr-27 19:33N 01°17' E 103°46'0 0.0
2016-Apr-27 18:33N 01°17' E 103°46'0 0.0
2016-Apr-27 17:33N 01°17' E 103°46'0 0.0
2016-Apr-27 16:33N 01°17' E 103°46'0 0.0
2016-Apr-27 15:33N 01°17' E 103°46'0 0.0
2016-Apr-27 14:33N 01°17' E 103°46'1 1.2
2016-Apr-27 13:33N 01°16' E 103°46'1 0.8
2016-Apr-27 12:31N 01°16' E 103°47'0 0.0
2016-Apr-27 11:31N 01°16' E 103°47'0 0.0
2016-Apr-27 10:31N 01°16' E 103°47'0 0.0
2016-Apr-27 09:31N 01°16' E 103°47'0 0.0
2016-Apr-27 08:31N 01°16' E 103°47'0 0.0
2016-Apr-27 07:31N 01°16' E 103°47'0 0.0
2016-Apr-27 06:31N 01°16' E 103°47'0 0.0
2016-Apr-27 05:31N 01°16' E 103°47'0 0.0
2016-Apr-27 04:31N 01°16' E 103°47'0 0.0
2016-Apr-27 03:31N 01°16' E 103°47'0 0.0
2016-Apr-27 02:31N 01°16' E 103°47'0 0.0
2016-Apr-27 01:28N 01°16' E 103°47'1 0.6
2016-Apr-27 00:33N 01°16' E 103°47'6 6.1
2016-Apr-26 23:32N 01°13' E 103°52'9 9.0
2016-Apr-26 22:30N 01°16' E 104°01'  
2016-Apr-23 21:04N 22°03' E 114°21'1213.0
2016-Apr-23 20:09N 22°11' E 114°11'710.7
2016-Apr-23 19:29N 22°16' E 114°06'1010.6
2016-Apr-23 18:33N 22°21' E 113°57'5 0.3
2016-Apr-23 00:33N 22°21' E 114°02'1110.9
2016-Apr-22 23:32N 22°13' E 114°10'8 8.2
2016-Apr-22 22:32N 22°08' E 114°18'1111.2
2016-Apr-22 21:33N 22°08' E 114°30'1110.7
2016-Apr-22 20:33N 22°07' E 114°41'11910.8
2016-Apr-22 09:31N 22°46' E 116°43'1110.6
2016-Apr-22 08:30N 22°51' E 116°53'1010.4
2016-Apr-22 07:33N 22°56' E 117°02'1210.6
2016-Apr-22 06:27N 23°03' E 117°12'7418.8
2016-Apr-22 02:30N 23°48' E 118°17'2619.9
2016-Apr-22 01:12N 24°05' E 118°38'1719.7
2016-Apr-22 00:20N 24°16' E 118°52'1518.7
2016-Apr-21 23:31N 24°26' E 119°05'1917.9
2016-Apr-21 22:26N 24°39' E 119°21'2417.4
2016-Apr-21 21:04N 24°55' E 119°41'31718.9
2016-Apr-21 04:19N 29°33' E 122°30'1418.0
2016-Apr-21 03:33N 29°44' E 122°20'1010.1
2016-Apr-21 02:33N 29°50' E 122°11'10 0.7
2016-Apr-20 11:19N 29°46' E 122°00'0 0.0
2016-Apr-20 09:33N 29°46' E 122°00'3 2.9
2016-Apr-20 08:33N 29°47' E 122°03'4 4.2
2016-Apr-20 07:34N 29°49' E 122°08'8 7.8
2016-Apr-20 06:32N 29°47' E 122°16'9 8.7
2016-Apr-20 05:32N 29°43' E 122°26'9 8.7
2016-Apr-20 04:33N 29°47' E 122°35'1211.1
2016-Apr-20 03:27N 29°55' E 122°45'82 8.3
2016-Apr-19 17:29N 31°11' E 122°09'1312.7
2016-Apr-19 16:26N 31°16' E 121°55'1010.9
2016-Apr-19 15:30N 31°19' E 121°43'4 3.1
2016-Apr-19 14:16N 31°20' E 121°39'0 0.0
2016-Apr-19 13:28N 31°20' E 121°39'  
Track history (hours):
 
Tides and Currents Weather Stations Pressure Air Temp Water Temp Dewpoint Dewpoint Depression Visibility Wind Speed Wind Dir Waves Ship Positions

OOCL California

Last reported at 2016-Apr-29 12:00 UTC. Time now 2016-May-02 12:37 UTC.
Position N 06°06' E 095°18'.

Length 276 m; beam 40 m; draft 14 m.

Type: Cargo ship. MMSI: 477704000.

Wind from 230 at 19 knots

Waves 0.5 meters (2 feet), 2 second period

Barometer 1002.2 mb
Air temperature 31.0 ° C
Visibility: greater than 5.4 NM
Dewpoint 27.1 ° C
Water temperature 32.0 ° C

Date/timePositionNaut miles runAvg speedWind from/ knotsBaromVisibWave heightAir tempDewpointWater temp
2016-Apr-29 12:00N 06°06' E 095°18'58119.1 230 / 191002.2 5.4 0.531.027.132.0
2016-Apr-28 05:31N 01°14' E 103°42'5 5.3
2016-Apr-28 04:33N 01°17' E 103°46'0 0.0
2016-Apr-28 03:33N 01°17' E 103°46'0 0.0
2016-Apr-28 02:33N 01°17' E 103°46'0 0.0
2016-Apr-28 01:27N 01°17' E 103°46'0 0.0
2016-Apr-28 00:33N 01°17' E 103°46'0 0.0
2016-Apr-27 23:33N 01°17' E 103°46'0 0.0
2016-Apr-27 22:33N 01°17' E 103°46'0 0.0
2016-Apr-27 21:33N 01°17' E 103°46'0 0.0
2016-Apr-27 20:24N 01°17' E 103°46'0 0.0
2016-Apr-27 19:33N 01°17' E 103°46'0 0.0
2016-Apr-27 18:33N 01°17' E 103°46'0 0.0
2016-Apr-27 17:33N 01°17' E 103°46'0 0.0
2016-Apr-27 16:33N 01°17' E 103°46'0 0.0
2016-Apr-27 15:33N 01°17' E 103°46'0 0.0
2016-Apr-27 14:33N 01°17' E 103°46'1 1.2
2016-Apr-27 13:33N 01°16' E 103°46'1 0.8
2016-Apr-27 12:31N 01°16' E 103°47'0 0.0
2016-Apr-27 11:31N 01°16' E 103°47'0 0.0
2016-Apr-27 10:31N 01°16' E 103°47'0 0.0
2016-Apr-27 09:31N 01°16' E 103°47'0 0.0
2016-Apr-27 08:31N 01°16' E 103°47'0 0.0
2016-Apr-27 07:31N 01°16' E 103°47'0 0.0
2016-Apr-27 06:31N 01°16' E 103°47'0 0.0
2016-Apr-27 05:31N 01°16' E 103°47'0 0.0
2016-Apr-27 04:31N 01°16' E 103°47'0 0.0
2016-Apr-27 03:31N 01°16' E 103°47'0 0.0
2016-Apr-27 02:31N 01°16' E 103°47'0 0.0
2016-Apr-27 01:28N 01°16' E 103°47'1 0.6
2016-Apr-27 00:33N 01°16' E 103°47'6 6.1
2016-Apr-26 23:32N 01°13' E 103°52'9 9.0
2016-Apr-26 22:30N 01°16' E 104°01'  
2016-Apr-23 21:04N 22°03' E 114°21'1213.0
2016-Apr-23 20:09N 22°11' E 114°11'710.7
2016-Apr-23 19:29N 22°16' E 114°06'1010.6
2016-Apr-23 18:33N 22°21' E 113°57'5 0.3
2016-Apr-23 00:33N 22°21' E 114°02'1110.9
2016-Apr-22 23:32N 22°13' E 114°10'8 8.2
2016-Apr-22 22:32N 22°08' E 114°18'1111.2
2016-Apr-22 21:33N 22°08' E 114°30'1110.7
2016-Apr-22 20:33N 22°07' E 114°41'11910.8
2016-Apr-22 09:31N 22°46' E 116°43'1110.6
2016-Apr-22 08:30N 22°51' E 116°53'1010.4
2016-Apr-22 07:33N 22°56' E 117°02'1210.6
2016-Apr-22 06:27N 23°03' E 117°12'7418.8
2016-Apr-22 02:30N 23°48' E 118°17'2619.9
2016-Apr-22 01:12N 24°05' E 118°38'1719.7
2016-Apr-22 00:20N 24°16' E 118°52'1518.7
2016-Apr-21 23:31N 24°26' E 119°05'1917.9
2016-Apr-21 22:26N 24°39' E 119°21'2417.4
2016-Apr-21 21:04N 24°55' E 119°41'31718.9
2016-Apr-21 04:19N 29°33' E 122°30'1418.0
2016-Apr-21 03:33N 29°44' E 122°20'1010.1
2016-Apr-21 02:33N 29°50' E 122°11'10 0.7
2016-Apr-20 11:19N 29°46' E 122°00'0 0.0
2016-Apr-20 09:33N 29°46' E 122°00'3 2.9
2016-Apr-20 08:33N 29°47' E 122°03'4 4.2
2016-Apr-20 07:34N 29°49' E 122°08'8 7.8
2016-Apr-20 06:32N 29°47' E 122°16'9 8.7
2016-Apr-20 05:32N 29°43' E 122°26'9 8.7
2016-Apr-20 04:33N 29°47' E 122°35'1211.1
2016-Apr-20 03:27N 29°55' E 122°45'82 8.3
2016-Apr-19 17:29N 31°11' E 122°09'1312.7
2016-Apr-19 16:26N 31°16' E 121°55'1010.9
2016-Apr-19 15:30N 31°19' E 121°43'4 3.1
2016-Apr-19 14:16N 31°20' E 121°39'0 0.0
2016-Apr-19 13:28N 31°20' E 121°39'  

Dump ship's entire track history